sensor_id;sensor_type;location;lat;lon;timestamp;P1;durP1;ratioP1;P2;durP2;ratioP2
45039;SDS011;30778;53.574;7.770;2022-08-18T00:01:19;6.43;;;3.97;;
45039;SDS011;30778;53.574;7.770;2022-08-18T00:03:47;10.88;;;3.83;;
45039;SDS011;30778;53.574;7.770;2022-08-18T00:06:14;9.23;;;3.35;;
45039;SDS011;30778;53.574;7.770;2022-08-18T00:08:40;8.30;;;3.70;;
45039;SDS011;30778;53.574;7.770;2022-08-18T00:11:06;7.70;;;3.58;;
45039;SDS011;30778;53.574;7.770;2022-08-18T00:13:31;9.55;;;4.28;;
45039;SDS011;30778;53.574;7.770;2022-08-18T00:15:57;8.90;;;3.35;;
45039;SDS011;30778;53.574;7.770;2022-08-18T00:18:22;6.18;;;4.03;;
45039;SDS011;30778;53.574;7.770;2022-08-18T00:20:48;7.57;;;3.75;;
45039;SDS011;30778;53.574;7.770;2022-08-18T00:23:14;9.93;;;4.43;;
45039;SDS011;30778;53.574;7.770;2022-08-18T00:25:40;7.63;;;3.22;;
45039;SDS011;30778;53.574;7.770;2022-08-18T00:28:05;8.70;;;3.85;;
45039;SDS011;30778;53.574;7.770;2022-08-18T00:30:31;9.63;;;4.32;;
45039;SDS011;30778;53.574;7.770;2022-08-18T00:32:57;8.95;;;4.32;;
45039;SDS011;30778;53.574;7.770;2022-08-18T00:35:27;10.57;;;4.65;;
45039;SDS011;30778;53.574;7.770;2022-08-18T00:37:59;15.45;;;5.40;;
45039;SDS011;30778;53.574;7.770;2022-08-18T00:40:30;15.45;;;4.80;;
45039;SDS011;30778;53.574;7.770;2022-08-18T00:43:02;17.63;;;5.30;;
45039;SDS011;30778;53.574;7.770;2022-08-18T00:45:32;16.23;;;5.60;;
45039;SDS011;30778;53.574;7.770;2022-08-18T00:48:00;10.88;;;5.50;;
45039;SDS011;30778;53.574;7.770;2022-08-18T00:50:34;24.13;;;6.43;;
45039;SDS011;30778;53.574;7.770;2022-08-18T00:55:45;20.05;;;7.43;;
45039;SDS011;30778;53.574;7.770;2022-08-18T00:58:14;25.08;;;7.90;;
45039;SDS011;30778;53.574;7.770;2022-08-18T01:00:47;15.20;;;7.80;;
45039;SDS011;30778;53.574;7.770;2022-08-18T01:03:16;13.95;;;6.28;;
45039;SDS011;30778;53.574;7.770;2022-08-18T01:05:48;11.82;;;7.60;;
45039;SDS011;30778;53.574;7.770;2022-08-18T01:08:19;22.25;;;6.93;;
45039;SDS011;30778;53.574;7.770;2022-08-18T01:10:45;28.35;;;7.32;;
45039;SDS011;30778;53.574;7.770;2022-08-18T01:13:11;21.20;;;7.70;;
45039;SDS011;30778;53.574;7.770;2022-08-18T01:15:37;22.55;;;6.13;;
45039;SDS011;30778;53.574;7.770;2022-08-18T01:18:08;10.65;;;5.72;;
45039;SDS011;30778;53.574;7.770;2022-08-18T01:23:55;20.20;;;6.40;;
45039;SDS011;30778;53.574;7.770;2022-08-18T01:26:22;15.00;;;6.13;;
45039;SDS011;30778;53.574;7.770;2022-08-18T01:28:50;20.15;;;6.20;;
45039;SDS011;30778;53.574;7.770;2022-08-18T01:31:40;14.38;;;6.30;;
45039;SDS011;30778;53.574;7.770;2022-08-18T01:34:06;20.02;;;7.25;;
45039;SDS011;30778;53.574;7.770;2022-08-18T01:36:34;11.95;;;5.80;;
45039;SDS011;30778;53.574;7.770;2022-08-18T01:39:03;20.17;;;5.80;;
45039;SDS011;30778;53.574;7.770;2022-08-18T01:41:30;18.83;;;5.78;;
45039;SDS011;30778;53.574;7.770;2022-08-18T01:43:56;11.13;;;5.40;;
45039;SDS011;30778;53.574;7.770;2022-08-18T01:46:24;9.48;;;5.18;;
45039;SDS011;30778;53.574;7.770;2022-08-18T01:48:50;14.73;;;5.95;;
45039;SDS011;30778;53.574;7.770;2022-08-18T01:51:16;16.25;;;5.55;;
45039;SDS011;30778;53.574;7.770;2022-08-18T01:53:44;16.63;;;5.85;;
45039;SDS011;30778;53.574;7.770;2022-08-18T01:56:10;15.50;;;5.97;;
45039;SDS011;30778;53.574;7.770;2022-08-18T01:58:37;10.10;;;6.00;;
45039;SDS011;30778;53.574;7.770;2022-08-18T02:01:03;15.00;;;6.63;;
45039;SDS011;30778;53.574;7.770;2022-08-18T02:03:33;15.65;;;5.78;;
45039;SDS011;30778;53.574;7.770;2022-08-18T02:06:02;19.77;;;5.82;;
45039;SDS011;30778;53.574;7.770;2022-08-18T02:08:31;11.05;;;4.90;;
45039;SDS011;30778;53.574;7.770;2022-08-18T02:10:56;18.80;;;5.28;;
45039;SDS011;30778;53.574;7.770;2022-08-18T02:13:23;13.43;;;4.70;;
45039;SDS011;30778;53.574;7.770;2022-08-18T02:15:49;11.95;;;4.82;;
45039;SDS011;30778;53.574;7.770;2022-08-18T02:18:15;11.43;;;5.10;;
45039;SDS011;30778;53.574;7.770;2022-08-18T02:20:42;14.25;;;5.35;;
45039;SDS011;30778;53.574;7.770;2022-08-18T02:23:09;7.57;;;4.65;;
45039;SDS011;30778;53.574;7.770;2022-08-18T02:25:35;5.07;;;2.88;;
45039;SDS011;30778;53.574;7.770;2022-08-18T02:28:02;8.93;;;4.20;;
45039;SDS011;30778;53.574;7.770;2022-08-18T02:30:28;9.48;;;4.50;;
45039;SDS011;30778;53.574;7.770;2022-08-18T02:32:53;10.95;;;4.57;;
45039;SDS011;30778;53.574;7.770;2022-08-18T02:35:21;7.70;;;4.40;;
45039;SDS011;30778;53.574;7.770;2022-08-18T02:37:47;10.52;;;4.65;;
45039;SDS011;30778;53.574;7.770;2022-08-18T02:40:13;6.50;;;4.45;;
45039;SDS011;30778;53.574;7.770;2022-08-18T02:42:39;6.65;;;4.50;;
45039;SDS011;30778;53.574;7.770;2022-08-18T02:45:06;6.13;;;4.38;;
45039;SDS011;30778;53.574;7.770;2022-08-18T02:47:32;5.78;;;4.30;;
45039;SDS011;30778;53.574;7.770;2022-08-18T02:49:58;6.45;;;4.43;;
45039;SDS011;30778;53.574;7.770;2022-08-18T02:52:23;12.60;;;6.10;;
45039;SDS011;30778;53.574;7.770;2022-08-18T02:54:57;8.05;;;5.35;;
45039;SDS011;30778;53.574;7.770;2022-08-18T02:57:26;8.68;;;5.15;;
45039;SDS011;30778;53.574;7.770;2022-08-18T02:59:52;9.90;;;5.50;;
45039;SDS011;30778;53.574;7.770;2022-08-18T03:02:18;10.80;;;5.30;;
45039;SDS011;30778;53.574;7.770;2022-08-18T03:04:44;9.05;;;6.57;;
45039;SDS011;30778;53.574;7.770;2022-08-18T03:07:10;11.35;;;6.10;;
45039;SDS011;30778;53.574;7.770;2022-08-18T03:09:36;7.68;;;5.78;;
45039;SDS011;30778;53.574;7.770;2022-08-18T03:12:02;6.05;;;5.05;;
45039;SDS011;30778;53.574;7.770;2022-08-18T03:14:28;6.65;;;4.85;;
45039;SDS011;30778;53.574;7.770;2022-08-18T03:16:54;7.65;;;5.88;;
45039;SDS011;30778;53.574;7.770;2022-08-18T03:19:20;9.70;;;6.80;;
45039;SDS011;30778;53.574;7.770;2022-08-18T03:21:48;10.90;;;6.18;;
45039;SDS011;30778;53.574;7.770;2022-08-18T03:24:13;12.98;;;7.47;;
45039;SDS011;30778;53.574;7.770;2022-08-18T03:26:40;11.10;;;7.28;;
45039;SDS011;30778;53.574;7.770;2022-08-18T03:29:08;15.07;;;8.68;;
45039;SDS011;30778;53.574;7.770;2022-08-18T03:31:34;15.00;;;7.55;;
45039;SDS011;30778;53.574;7.770;2022-08-18T03:34:02;8.32;;;7.13;;
45039;SDS011;30778;53.574;7.770;2022-08-18T03:36:28;15.57;;;8.43;;
45039;SDS011;30778;53.574;7.770;2022-08-18T03:39:00;10.47;;;7.10;;
45039;SDS011;30778;53.574;7.770;2022-08-18T03:41:31;10.45;;;7.40;;
45039;SDS011;30778;53.574;7.770;2022-08-18T03:43:57;11.50;;;7.43;;
45039;SDS011;30778;53.574;7.770;2022-08-18T03:46:22;9.50;;;6.88;;
45039;SDS011;30778;53.574;7.770;2022-08-18T03:48:49;13.85;;;7.10;;
45039;SDS011;30778;53.574;7.770;2022-08-18T03:51:16;9.18;;;6.88;;
45039;SDS011;30778;53.574;7.770;2022-08-18T03:53:46;9.82;;;6.82;;
45039;SDS011;30778;53.574;7.770;2022-08-18T03:56:15;8.98;;;6.60;;
45039;SDS011;30778;53.574;7.770;2022-08-18T03:58:46;7.93;;;6.28;;
45039;SDS011;30778;53.574;7.770;2022-08-18T04:01:16;8.23;;;6.35;;
45039;SDS011;30778;53.574;7.770;2022-08-18T04:03:45;7.85;;;6.22;;
45039;SDS011;30778;53.574;7.770;2022-08-18T04:06:19;9.27;;;4.80;;
45039;SDS011;30778;53.574;7.770;2022-08-18T04:08:47;9.45;;;4.80;;
45039;SDS011;30778;53.574;7.770;2022-08-18T04:11:15;10.95;;;5.10;;
45039;SDS011;30778;53.574;7.770;2022-08-18T04:13:40;8.35;;;4.97;;
45039;SDS011;30778;53.574;7.770;2022-08-18T04:16:06;6.05;;;4.13;;
45039;SDS011;30778;53.574;7.770;2022-08-18T04:18:32;8.10;;;4.50;;
45039;SDS011;30778;53.574;7.770;2022-08-18T04:21:02;8.50;;;5.05;;
45039;SDS011;30778;53.574;7.770;2022-08-18T04:23:33;6.07;;;3.92;;
45039;SDS011;30778;53.574;7.770;2022-08-18T04:26:00;9.50;;;5.55;;
45039;SDS011;30778;53.574;7.770;2022-08-18T04:28:28;6.00;;;4.40;;
45039;SDS011;30778;53.574;7.770;2022-08-18T04:30:54;8.50;;;4.20;;
45039;SDS011;30778;53.574;7.770;2022-08-18T04:33:24;11.55;;;4.88;;
45039;SDS011;30778;53.574;7.770;2022-08-18T04:35:50;10.27;;;5.70;;
45039;SDS011;30778;53.574;7.770;2022-08-18T04:38:16;5.82;;;3.75;;
45039;SDS011;30778;53.574;7.770;2022-08-18T04:40:42;7.40;;;4.00;;
45039;SDS011;30778;53.574;7.770;2022-08-18T04:43:08;9.27;;;5.00;;
45039;SDS011;30778;53.574;7.770;2022-08-18T04:45:40;4.07;;;3.05;;
45039;SDS011;30778;53.574;7.770;2022-08-18T04:48:10;9.27;;;4.32;;
45039;SDS011;30778;53.574;7.770;2022-08-18T04:50:36;11.35;;;5.18;;
45039;SDS011;30778;53.574;7.770;2022-08-18T04:53:03;6.05;;;4.40;;
45039;SDS011;30778;53.574;7.770;2022-08-18T04:55:47;8.85;;;5.70;;
45039;SDS011;30778;53.574;7.770;2022-08-18T04:58:18;8.50;;;5.22;;
45039;SDS011;30778;53.574;7.770;2022-08-18T05:00:44;9.43;;;4.28;;
45039;SDS011;30778;53.574;7.770;2022-08-18T05:03:11;7.82;;;4.88;;
45039;SDS011;30778;53.574;7.770;2022-08-18T05:05:37;8.70;;;5.18;;
45039;SDS011;30778;53.574;7.770;2022-08-18T05:08:03;6.78;;;4.50;;
45039;SDS011;30778;53.574;7.770;2022-08-18T05:10:29;13.50;;;5.30;;
45039;SDS011;30778;53.574;7.770;2022-08-18T05:12:54;12.82;;;6.00;;
45039;SDS011;30778;53.574;7.770;2022-08-18T05:15:21;8.52;;;4.97;;
45039;SDS011;30778;53.574;7.770;2022-08-18T05:17:47;7.45;;;6.07;;
45039;SDS011;30778;53.574;7.770;2022-08-18T05:20:12;9.25;;;6.00;;
45039;SDS011;30778;53.574;7.770;2022-08-18T05:22:38;10.30;;;5.30;;
45039;SDS011;30778;53.574;7.770;2022-08-18T05:25:06;12.27;;;4.90;;
45039;SDS011;30778;53.574;7.770;2022-08-18T05:27:35;12.20;;;6.35;;
45039;SDS011;30778;53.574;7.770;2022-08-18T05:30:03;12.27;;;5.90;;
45039;SDS011;30778;53.574;7.770;2022-08-18T05:32:41;14.40;;;4.95;;
45039;SDS011;30778;53.574;7.770;2022-08-18T05:35:14;14.70;;;6.10;;
45039;SDS011;30778;53.574;7.770;2022-08-18T05:38:02;15.40;;;5.65;;
45039;SDS011;30778;53.574;7.770;2022-08-18T05:40:41;10.95;;;5.75;;
45039;SDS011;30778;53.574;7.770;2022-08-18T05:43:10;12.75;;;6.80;;
45039;SDS011;30778;53.574;7.770;2022-08-18T05:45:38;14.23;;;7.70;;
45039;SDS011;30778;53.574;7.770;2022-08-18T05:48:04;12.27;;;6.57;;
45039;SDS011;30778;53.574;7.770;2022-08-18T05:50:31;16.17;;;6.93;;
45039;SDS011;30778;53.574;7.770;2022-08-18T05:53:03;13.43;;;6.85;;
45039;SDS011;30778;53.574;7.770;2022-08-18T05:55:32;15.05;;;7.30;;
45039;SDS011;30778;53.574;7.770;2022-08-18T05:58:27;12.98;;;7.65;;
45039;SDS011;30778;53.574;7.770;2022-08-18T06:01:01;11.55;;;6.57;;
45039;SDS011;30778;53.574;7.770;2022-08-18T06:03:31;16.85;;;7.40;;
45039;SDS011;30778;53.574;7.770;2022-08-18T06:06:05;9.82;;;7.70;;
45039;SDS011;30778;53.574;7.770;2022-08-18T06:08:45;12.32;;;7.53;;
45039;SDS011;30778;53.574;7.770;2022-08-18T06:11:20;14.40;;;7.63;;
45039;SDS011;30778;53.574;7.770;2022-08-18T06:13:45;18.67;;;7.82;;
45039;SDS011;30778;53.574;7.770;2022-08-18T06:16:56;14.52;;;8.10;;
45039;SDS011;30778;53.574;7.770;2022-08-18T06:19:10;13.63;;;7.70;;
45039;SDS011;30778;53.574;7.770;2022-08-18T06:22:05;17.92;;;7.90;;
45039;SDS011;30778;53.574;7.770;2022-08-18T06:27:40;22.13;;;8.18;;
45039;SDS011;30778;53.574;7.770;2022-08-18T06:30:19;13.55;;;5.55;;
45039;SDS011;30778;53.574;7.770;2022-08-18T06:33:00;17.20;;;7.53;;
45039;SDS011;30778;53.574;7.770;2022-08-18T06:41:02;9.60;;;5.35;;
45039;SDS011;30778;53.574;7.770;2022-08-18T06:43:38;18.20;;;6.20;;
45039;SDS011;30778;53.574;7.770;2022-08-18T06:46:16;12.40;;;5.40;;
45039;SDS011;30778;53.574;7.770;2022-08-18T06:48:52;13.95;;;4.82;;
45039;SDS011;30778;53.574;7.770;2022-08-18T06:51:22;16.33;;;5.18;;
45039;SDS011;30778;53.574;7.770;2022-08-18T06:56:34;20.15;;;4.40;;
45039;SDS011;30778;53.574;7.770;2022-08-18T07:02:03;17.40;;;6.22;;
45039;SDS011;30778;53.574;7.770;2022-08-18T07:04:59;15.80;;;5.50;;
45039;SDS011;30778;53.574;7.770;2022-08-18T07:07:35;20.80;;;6.40;;
45039;SDS011;30778;53.574;7.770;2022-08-18T07:10:04;15.18;;;5.28;;
45039;SDS011;30778;53.574;7.770;2022-08-18T07:12:50;13.68;;;5.13;;
45039;SDS011;30778;53.574;7.770;2022-08-18T07:15:22;20.88;;;5.65;;
45039;SDS011;30778;53.574;7.770;2022-08-18T07:17:50;22.65;;;5.78;;
45039;SDS011;30778;53.574;7.770;2022-08-18T07:20:20;20.77;;;4.82;;
45039;SDS011;30778;53.574;7.770;2022-08-18T07:25:23;16.77;;;5.10;;
45039;SDS011;30778;53.574;7.770;2022-08-18T07:33:33;13.55;;;5.25;;
45039;SDS011;30778;53.574;7.770;2022-08-18T07:36:02;16.35;;;4.60;;
45039;SDS011;30778;53.574;7.770;2022-08-18T07:41:08;21.55;;;5.30;;
45039;SDS011;30778;53.574;7.770;2022-08-18T07:43:41;13.30;;;3.72;;
45039;SDS011;30778;53.574;7.770;2022-08-18T07:46:29;11.30;;;4.07;;
45039;SDS011;30778;53.574;7.770;2022-08-18T07:49:02;14.80;;;4.38;;
45039;SDS011;30778;53.574;7.770;2022-08-18T07:51:30;15.63;;;4.15;;
45039;SDS011;30778;53.574;7.770;2022-08-18T08:02:30;21.45;;;5.95;;
45039;SDS011;30778;53.574;7.770;2022-08-18T08:04:57;8.95;;;4.35;;
45039;SDS011;30778;53.574;7.770;2022-08-18T08:07:37;15.00;;;5.07;;
45039;SDS011;30778;53.574;7.770;2022-08-18T08:16:11;10.38;;;4.68;;
45039;SDS011;30778;53.574;7.770;2022-08-18T08:22:04;18.08;;;5.25;;
45039;SDS011;30778;53.574;7.770;2022-08-18T08:24:47;16.42;;;5.28;;
45039;SDS011;30778;53.574;7.770;2022-08-18T08:27:23;13.77;;;4.60;;
45039;SDS011;30778;53.574;7.770;2022-08-18T08:30:14;11.93;;;4.22;;
45039;SDS011;30778;53.574;7.770;2022-08-18T08:37:53;12.98;;;3.75;;
45039;SDS011;30778;53.574;7.770;2022-08-18T08:40:26;14.25;;;4.15;;
45039;SDS011;30778;53.574;7.770;2022-08-18T08:43:04;20.33;;;3.88;;
45039;SDS011;30778;53.574;7.770;2022-08-18T08:45:36;12.45;;;3.42;;
45039;SDS011;30778;53.574;7.770;2022-08-18T08:48:13;10.82;;;3.78;;
45039;SDS011;30778;53.574;7.770;2022-08-18T08:53:42;10.95;;;3.10;;
45039;SDS011;30778;53.574;7.770;2022-08-18T08:56:13;12.25;;;4.03;;
45039;SDS011;30778;53.574;7.770;2022-08-18T08:58:57;18.27;;;4.30;;
45039;SDS011;30778;53.574;7.770;2022-08-18T09:07:14;16.73;;;3.47;;
45039;SDS011;30778;53.574;7.770;2022-08-18T09:09:58;11.27;;;3.50;;
45039;SDS011;30778;53.574;7.770;2022-08-18T09:15:41;13.45;;;2.97;;
45039;SDS011;30778;53.574;7.770;2022-08-18T09:24:05;11.75;;;5.03;;
45039;SDS011;30778;53.574;7.770;2022-08-18T09:29:45;9.93;;;3.60;;
45039;SDS011;30778;53.574;7.770;2022-08-18T09:40:33;15.82;;;4.30;;
45039;SDS011;30778;53.574;7.770;2022-08-18T09:43:32;14.73;;;3.40;;
45039;SDS011;30778;53.574;7.770;2022-08-18T09:46:03;11.55;;;2.92;;
45039;SDS011;30778;53.574;7.770;2022-08-18T09:48:32;16.42;;;3.50;;
45039;SDS011;30778;53.574;7.770;2022-08-18T09:56:15;11.55;;;2.65;;
45039;SDS011;30778;53.574;7.770;2022-08-18T09:58:55;12.23;;;3.17;;
45039;SDS011;30778;53.574;7.770;2022-08-18T10:06:43;11.27;;;2.45;;
45039;SDS011;30778;53.574;7.770;2022-08-18T10:22:51;7.88;;;2.45;;
45039;SDS011;30778;53.574;7.770;2022-08-18T10:28:09;13.13;;;2.50;;
45039;SDS011;30778;53.574;7.770;2022-08-18T10:33:04;6.82;;;3.08;;
45039;SDS011;30778;53.574;7.770;2022-08-18T10:37:57;6.47;;;3.35;;
45039;SDS011;30778;53.574;7.770;2022-08-18T10:40:41;6.97;;;3.13;;
45039;SDS011;30778;53.574;7.770;2022-08-18T10:43:16;9.45;;;2.95;;
45039;SDS011;30778;53.574;7.770;2022-08-18T10:45:48;8.60;;;2.80;;
45039;SDS011;30778;53.574;7.770;2022-08-18T10:48:22;9.95;;;3.30;;
45039;SDS011;30778;53.574;7.770;2022-08-18T10:50:55;14.00;;;4.35;;
45039;SDS011;30778;53.574;7.770;2022-08-18T10:53:30;10.23;;;2.97;;
45039;SDS011;30778;53.574;7.770;2022-08-18T10:58:57;11.65;;;4.28;;
45039;SDS011;30778;53.574;7.770;2022-08-18T11:04:30;11.52;;;3.83;;
45039;SDS011;30778;53.574;7.770;2022-08-18T11:07:05;11.20;;;4.22;;
45039;SDS011;30778;53.574;7.770;2022-08-18T11:09:35;9.43;;;3.72;;
45039;SDS011;30778;53.574;7.770;2022-08-18T11:12:02;9.27;;;4.20;;
45039;SDS011;30778;53.574;7.770;2022-08-18T11:20:42;8.48;;;5.03;;
45039;SDS011;30778;53.574;7.770;2022-08-18T11:23:13;8.80;;;3.55;;
45039;SDS011;30778;53.574;7.770;2022-08-18T11:25:40;6.80;;;3.00;;
45039;SDS011;30778;53.574;7.770;2022-08-18T11:28:17;10.93;;;3.67;;
45039;SDS011;30778;53.574;7.770;2022-08-18T11:30:45;7.65;;;3.05;;
45039;SDS011;30778;53.574;7.770;2022-08-18T11:33:15;12.77;;;3.53;;
45039;SDS011;30778;53.574;7.770;2022-08-18T11:38:13;24.27;;;4.13;;
45039;SDS011;30778;53.574;7.770;2022-08-18T11:40:41;22.98;;;3.25;;
45039;SDS011;30778;53.574;7.770;2022-08-18T11:48:14;15.13;;;2.75;;
45039;SDS011;30778;53.574;7.770;2022-08-18T11:58:41;15.57;;;3.08;;
45039;SDS011;30778;53.574;7.770;2022-08-18T12:03:56;9.43;;;2.72;;
45039;SDS011;30778;53.574;7.770;2022-08-18T12:06:35;13.40;;;2.92;;
45039;SDS011;30778;53.574;7.770;2022-08-18T12:09:46;14.70;;;2.42;;
45039;SDS011;30778;53.574;7.770;2022-08-18T12:14:29;7.38;;;2.47;;
45039;SDS011;30778;53.574;7.770;2022-08-18T12:17:16;8.93;;;3.50;;
45039;SDS011;30778;53.574;7.770;2022-08-18T12:19:42;7.07;;;2.72;;
45039;SDS011;30778;53.574;7.770;2022-08-18T12:25:06;9.55;;;1.98;;
45039;SDS011;30778;53.574;7.770;2022-08-18T12:27:33;13.07;;;2.80;;
45039;SDS011;30778;53.574;7.770;2022-08-18T12:29:59;10.85;;;2.35;;
45039;SDS011;30778;53.574;7.770;2022-08-18T12:32:26;9.70;;;3.42;;
45039;SDS011;30778;53.574;7.770;2022-08-18T12:34:53;14.98;;;3.28;;
45039;SDS011;30778;53.574;7.770;2022-08-18T12:37:21;9.38;;;2.13;;
45039;SDS011;30778;53.574;7.770;2022-08-18T12:39:48;6.10;;;2.50;;
45039;SDS011;30778;53.574;7.770;2022-08-18T12:42:14;9.05;;;2.65;;
45039;SDS011;30778;53.574;7.770;2022-08-18T12:44:40;8.55;;;2.92;;
45039;SDS011;30778;53.574;7.770;2022-08-18T12:47:09;9.15;;;2.85;;
45039;SDS011;30778;53.574;7.770;2022-08-18T12:49:37;5.82;;;2.03;;
45039;SDS011;30778;53.574;7.770;2022-08-18T12:52:04;8.02;;;2.40;;
45039;SDS011;30778;53.574;7.770;2022-08-18T12:54:30;5.63;;;2.00;;
45039;SDS011;30778;53.574;7.770;2022-08-18T12:56:58;8.00;;;2.63;;
45039;SDS011;30778;53.574;7.770;2022-08-18T12:59:24;3.17;;;1.55;;
45039;SDS011;30778;53.574;7.770;2022-08-18T13:01:50;7.95;;;2.25;;
45039;SDS011;30778;53.574;7.770;2022-08-18T13:04:16;8.38;;;3.38;;
45039;SDS011;30778;53.574;7.770;2022-08-18T13:06:46;6.45;;;2.05;;
45039;SDS011;30778;53.574;7.770;2022-08-18T13:09:14;7.15;;;2.15;;
45039;SDS011;30778;53.574;7.770;2022-08-18T13:11:40;3.80;;;1.95;;
45039;SDS011;30778;53.574;7.770;2022-08-18T13:14:06;3.35;;;1.63;;
45039;SDS011;30778;53.574;7.770;2022-08-18T13:16:33;5.45;;;1.17;;
45039;SDS011;30778;53.574;7.770;2022-08-18T13:19:00;4.25;;;1.23;;
45039;SDS011;30778;53.574;7.770;2022-08-18T13:21:26;5.80;;;0.90;;
45039;SDS011;30778;53.574;7.770;2022-08-18T13:23:52;7.22;;;1.92;;
45039;SDS011;30778;53.574;7.770;2022-08-18T13:26:25;4.57;;;0.80;;
45039;SDS011;30778;53.574;7.770;2022-08-18T13:28:52;5.05;;;1.23;;
45039;SDS011;30778;53.574;7.770;2022-08-18T13:31:18;5.00;;;1.25;;
45039;SDS011;30778;53.574;7.770;2022-08-18T13:33:44;3.28;;;0.88;;
45039;SDS011;30778;53.574;7.770;2022-08-18T13:36:09;1.10;;;0.38;;
45039;SDS011;30778;53.574;7.770;2022-08-18T13:38:35;2.45;;;0.70;;
45039;SDS011;30778;53.574;7.770;2022-08-18T13:41:01;2.22;;;0.55;;
45039;SDS011;30778;53.574;7.770;2022-08-18T13:43:40;1.23;;;0.63;;
45039;SDS011;30778;53.574;7.770;2022-08-18T13:46:12;3.05;;;0.82;;
45039;SDS011;30778;53.574;7.770;2022-08-18T13:48:41;3.67;;;0.50;;
45039;SDS011;30778;53.574;7.770;2022-08-18T13:51:08;1.83;;;0.45;;
45039;SDS011;30778;53.574;7.770;2022-08-18T13:53:38;2.20;;;0.60;;
45039;SDS011;30778;53.574;7.770;2022-08-18T13:56:03;3.42;;;0.73;;
45039;SDS011;30778;53.574;7.770;2022-08-18T13:58:30;2.05;;;0.50;;
45039;SDS011;30778;53.574;7.770;2022-08-18T14:01:00;6.20;;;0.95;;
45039;SDS011;30778;53.574;7.770;2022-08-18T14:03:28;4.13;;;0.80;;
45039;SDS011;30778;53.574;7.770;2022-08-18T14:05:55;3.47;;;0.75;;
45039;SDS011;30778;53.574;7.770;2022-08-18T14:08:24;4.50;;;1.08;;
45039;SDS011;30778;53.574;7.770;2022-08-18T14:10:55;3.08;;;1.42;;
45039;SDS011;30778;53.574;7.770;2022-08-18T14:13:23;2.70;;;0.57;;
45039;SDS011;30778;53.574;7.770;2022-08-18T14:15:49;3.95;;;0.75;;
45039;SDS011;30778;53.574;7.770;2022-08-18T14:18:15;3.97;;;0.70;;
45039;SDS011;30778;53.574;7.770;2022-08-18T14:20:41;3.47;;;0.82;;
45039;SDS011;30778;53.574;7.770;2022-08-18T14:23:25;7.43;;;1.77;;
45039;SDS011;30778;53.574;7.770;2022-08-18T14:26:09;3.22;;;0.65;;
45039;SDS011;30778;53.574;7.770;2022-08-18T14:28:54;2.92;;;1.13;;
45039;SDS011;30778;53.574;7.770;2022-08-18T14:31:19;9.15;;;0.60;;
45039;SDS011;30778;53.574;7.770;2022-08-18T14:33:45;4.45;;;0.75;;
45039;SDS011;30778;53.574;7.770;2022-08-18T14:36:11;3.58;;;0.80;;
45039;SDS011;30778;53.574;7.770;2022-08-18T14:38:38;3.22;;;0.60;;
45039;SDS011;30778;53.574;7.770;2022-08-18T14:41:06;4.38;;;0.98;;
45039;SDS011;30778;53.574;7.770;2022-08-18T14:43:34;6.65;;;0.60;;
45039;SDS011;30778;53.574;7.770;2022-08-18T14:46:01;3.00;;;0.77;;
45039;SDS011;30778;53.574;7.770;2022-08-18T14:48:27;3.72;;;0.40;;
45039;SDS011;30778;53.574;7.770;2022-08-18T14:50:53;3.13;;;0.63;;
45039;SDS011;30778;53.574;7.770;2022-08-18T14:53:22;2.28;;;0.63;;
45039;SDS011;30778;53.574;7.770;2022-08-18T14:55:50;1.35;;;0.30;;
45039;SDS011;30778;53.574;7.770;2022-08-18T14:58:17;3.35;;;0.35;;
45039;SDS011;30778;53.574;7.770;2022-08-18T15:00:43;1.92;;;0.60;;
45039;SDS011;30778;53.574;7.770;2022-08-18T15:03:09;1.58;;;0.50;;
45039;SDS011;30778;53.574;7.770;2022-08-18T15:05:35;4.80;;;0.52;;
45039;SDS011;30778;53.574;7.770;2022-08-18T15:08:01;2.90;;;1.20;;
45039;SDS011;30778;53.574;7.770;2022-08-18T15:10:30;13.20;;;1.00;;
45039;SDS011;30778;53.574;7.770;2022-08-18T15:12:56;6.93;;;1.00;;
45039;SDS011;30778;53.574;7.770;2022-08-18T15:15:23;4.30;;;0.68;;
45039;SDS011;30778;53.574;7.770;2022-08-18T15:17:49;5.60;;;0.85;;
45039;SDS011;30778;53.574;7.770;2022-08-18T15:20:15;2.50;;;0.82;;
45039;SDS011;30778;53.574;7.770;2022-08-18T15:22:42;5.53;;;0.70;;
45039;SDS011;30778;53.574;7.770;2022-08-18T15:25:27;1.92;;;0.70;;
45039;SDS011;30778;53.574;7.770;2022-08-18T15:28:06;4.40;;;0.80;;
45039;SDS011;30778;53.574;7.770;2022-08-18T15:30:35;6.55;;;1.17;;
45039;SDS011;30778;53.574;7.770;2022-08-18T15:33:02;1.85;;;0.60;;
45039;SDS011;30778;53.574;7.770;2022-08-18T15:35:28;2.05;;;0.70;;
45039;SDS011;30778;53.574;7.770;2022-08-18T15:37:55;3.35;;;0.73;;
45039;SDS011;30778;53.574;7.770;2022-08-18T15:40:22;2.78;;;0.60;;
45039;SDS011;30778;53.574;7.770;2022-08-18T15:42:52;5.70;;;0.85;;
45039;SDS011;30778;53.574;7.770;2022-08-18T15:45:22;4.05;;;0.80;;
45039;SDS011;30778;53.574;7.770;2022-08-18T15:47:50;3.40;;;2.03;;
45039;SDS011;30778;53.574;7.770;2022-08-18T15:50:17;3.08;;;0.70;;
45039;SDS011;30778;53.574;7.770;2022-08-18T15:52:47;3.88;;;0.73;;
45039;SDS011;30778;53.574;7.770;2022-08-18T15:55:39;1.45;;;0.63;;
45039;SDS011;30778;53.574;7.770;2022-08-18T15:58:06;3.03;;;0.88;;
45039;SDS011;30778;53.574;7.770;2022-08-18T16:00:33;8.35;;;1.48;;
45039;SDS011;30778;53.574;7.770;2022-08-18T16:03:00;2.03;;;0.60;;
45039;SDS011;30778;53.574;7.770;2022-08-18T16:05:29;6.40;;;1.00;;
45039;SDS011;30778;53.574;7.770;2022-08-18T16:07:57;2.83;;;0.60;;
45039;SDS011;30778;53.574;7.770;2022-08-18T16:10:25;4.72;;;0.77;;
45039;SDS011;30778;53.574;7.770;2022-08-18T16:12:52;5.13;;;1.17;;
45039;SDS011;30778;53.574;7.770;2022-08-18T16:15:22;5.03;;;1.20;;
45039;SDS011;30778;53.574;7.770;2022-08-18T16:17:49;3.42;;;0.60;;
45039;SDS011;30778;53.574;7.770;2022-08-18T16:20:17;3.78;;;0.80;;
45039;SDS011;30778;53.574;7.770;2022-08-18T16:22:44;5.80;;;1.50;;
45039;SDS011;30778;53.574;7.770;2022-08-18T16:25:11;4.35;;;0.77;;
45039;SDS011;30778;53.574;7.770;2022-08-18T16:27:37;2.55;;;1.35;;
45039;SDS011;30778;53.574;7.770;2022-08-18T16:30:07;4.97;;;0.63;;
45039;SDS011;30778;53.574;7.770;2022-08-18T16:32:38;1.90;;;0.63;;
45039;SDS011;30778;53.574;7.770;2022-08-18T16:35:04;7.43;;;1.33;;
45039;SDS011;30778;53.574;7.770;2022-08-18T16:37:31;3.22;;;0.38;;
45039;SDS011;30778;53.574;7.770;2022-08-18T16:39:56;2.13;;;0.50;;
45039;SDS011;30778;53.574;7.770;2022-08-18T16:42:22;2.17;;;0.70;;
45039;SDS011;30778;53.574;7.770;2022-08-18T16:44:47;3.15;;;0.45;;
45039;SDS011;30778;53.574;7.770;2022-08-18T16:47:13;2.47;;;0.80;;
45039;SDS011;30778;53.574;7.770;2022-08-18T16:49:45;3.05;;;0.40;;
45039;SDS011;30778;53.574;7.770;2022-08-18T16:52:13;3.20;;;0.93;;
45039;SDS011;30778;53.574;7.770;2022-08-18T16:54:40;2.17;;;1.05;;
45039;SDS011;30778;53.574;7.770;2022-08-18T16:57:06;3.42;;;0.73;;
45039;SDS011;30778;53.574;7.770;2022-08-18T16:59:32;2.03;;;0.43;;
45039;SDS011;30778;53.574;7.770;2022-08-18T17:02:17;4.32;;;0.80;;
45039;SDS011;30778;53.574;7.770;2022-08-18T17:05:01;3.97;;;0.73;;
45039;SDS011;30778;53.574;7.770;2022-08-18T17:07:27;1.65;;;0.32;;
45039;SDS011;30778;53.574;7.770;2022-08-18T17:09:54;2.70;;;0.32;;
45039;SDS011;30778;53.574;7.770;2022-08-18T17:12:20;3.40;;;0.43;;
45039;SDS011;30778;53.574;7.770;2022-08-18T17:14:47;1.00;;;0.30;;
45039;SDS011;30778;53.574;7.770;2022-08-18T17:17:13;2.45;;;0.47;;
45039;SDS011;30778;53.574;7.770;2022-08-18T17:19:42;3.83;;;0.50;;
45039;SDS011;30778;53.574;7.770;2022-08-18T17:22:08;3.97;;;0.43;;
45039;SDS011;30778;53.574;7.770;2022-08-18T17:24:34;3.13;;;0.60;;
45039;SDS011;30778;53.574;7.770;2022-08-18T17:35:11;1.42;;;0.40;;
45039;SDS011;30778;53.574;7.770;2022-08-18T17:37:40;3.45;;;0.65;;